Time;durP1;ratioP1;P1;durP2;ratioP2;P2;SDS_P1;SDS_P2;PMS_P1;PMS_P2;Temp;Humidity;BMP_temperature;BMP_pressure;BME280_temperature;BME280_humidity;BME280_pressure;Samples;Min_cycle;Max_cycle;Signal;HPM_P1;HPM_P2
2021/06/22 00:00:30;;;;;;;53.38;8.05;;;23.70;77.00;;;;;;5023029;28;20426;-62
2021/06/22 00:02:55;;;;;;;57.28;7.53;;;23.60;77.10;;;;;;5004945;28;20390;-61
2021/06/22 00:05:21;;;;;;;39.33;7.65;;;23.60;77.10;;;;;;4987997;28;20048;-61
2021/06/22 00:07:47;;;;;;;52.25;8.00;;;23.60;77.10;;;;;;5010122;28;20478;-61
2021/06/22 00:10:15;;;;;;;43.72;7.20;;;23.60;77.20;;;;;;5008505;28;20042;-61
2021/06/22 00:12:40;;;;;;;45.70;6.57;;;23.50;77.20;;;;;;5024468;28;20075;-61
2021/06/22 00:15:06;;;;;;;35.88;6.63;;;23.50;77.40;;;;;;5009981;28;20497;-61
2021/06/22 00:17:32;;;;;;;42.10;6.10;;;23.50;77.50;;;;;;5009047;28;20470;-61
2021/06/22 00:19:58;;;;;;;47.78;7.15;;;23.50;77.40;;;;;;5006100;28;20042;-63
2021/06/22 00:22:23;;;;;;;35.30;6.63;;;23.50;77.50;;;;;;5005346;28;20022;-61
2021/06/22 00:24:49;;;;;;;42.78;6.28;;;23.40;77.50;;;;;;5007851;28;20477;-60
2021/06/22 00:27:14;;;;;;;42.15;6.20;;;23.40;77.50;;;;;;5001437;28;20046;-61
2021/06/22 00:29:43;;;;;;;44.58;6.88;;;23.40;77.50;;;;;;5030290;28;20018;-61
2021/06/22 00:32:09;;;;;;;32.88;6.00;;;23.40;77.70;;;;;;5009799;28;20072;-61
2021/06/22 00:34:35;;;;;;;33.55;6.35;;;23.30;77.70;;;;;;5009386;28;20023;-61
2021/06/22 00:37:00;;;;;;;28.70;6.15;;;23.40;77.70;;;;;;5007815;28;20115;-61
2021/06/22 00:39:26;;;;;;;30.27;5.22;;;23.30;77.70;;;;;;5006070;28;20609;-62
2021/06/22 00:41:51;;;;;;;24.92;5.43;;;23.30;77.80;;;;;;5010070;28;20030;-61
2021/06/22 00:44:17;;;;;;;38.95;6.15;;;23.30;77.80;;;;;;5010631;28;20061;-61
2021/06/22 00:46:42;;;;;;;29.30;5.80;;;23.30;77.80;;;;;;5007628;28;20097;-61
2021/06/22 00:49:08;;;;;;;30.92;5.40;;;23.30;77.90;;;;;;5009917;28;20034;-61
2021/06/22 00:51:34;;;;;;;27.10;4.70;;;23.30;77.80;;;;;;5010104;28;20044;-61
2021/06/22 00:53:59;;;;;;;29.63;5.65;;;23.30;77.80;;;;;;5010114;28;20025;-61
2021/06/22 00:56:25;;;;;;;25.85;5.10;;;23.30;77.80;;;;;;5009445;28;20026;-61
2021/06/22 00:58:51;;;;;;;21.63;5.50;;;23.20;77.80;;;;;;5009115;28;20033;-62
2021/06/22 01:01:17;;;;;;;25.60;5.30;;;23.20;77.80;;;;;;5007647;28;20030;-61
2021/06/22 01:03:42;;;;;;;26.65;5.75;;;23.20;77.70;;;;;;5010325;28;20513;-62
2021/06/22 01:06:10;;;;;;;20.85;4.97;;;23.20;77.80;;;;;;5009359;28;20034;-61
2021/06/22 01:08:35;;;;;;;24.52;5.70;;;23.20;77.80;;;;;;5007740;28;20038;-62
2021/06/22 01:11:01;;;;;;;33.15;5.65;;;23.20;77.90;;;;;;5008577;28;20041;-61
2021/06/22 01:13:27;;;;;;;24.63;4.85;;;23.10;77.90;;;;;;4992802;28;20119;-61
2021/06/22 01:15:52;;;;;;;23.15;4.47;;;23.10;77.90;;;;;;5001878;28;20038;-62
2021/06/22 01:18:18;;;;;;;27.23;4.93;;;23.10;78.00;;;;;;4998638;28;20037;-61
2021/06/22 01:20:43;;;;;;;22.77;4.30;;;23.10;78.00;;;;;;5007433;28;20052;-61
2021/06/22 01:23:09;;;;;;;17.30;4.20;;;23.10;78.00;;;;;;5007407;28;20553;-62
2021/06/22 01:25:35;;;;;;;20.67;4.70;;;23.10;78.10;;;;;;5008670;28;20554;-61
2021/06/22 01:28:01;;;;;;;19.98;4.63;;;23.10;78.10;;;;;;5007794;28;20449;-62
2021/06/22 01:30:27;;;;;;;15.32;4.07;;;23.00;78.10;;;;;;4990173;28;20045;-61
2021/06/22 01:32:53;;;;;;;14.95;4.50;;;23.00;78.10;;;;;;5036665;28;20037;-61
2021/06/22 01:35:18;;;;;;;18.90;5.00;;;23.00;78.10;;;;;;5008569;28;20025;-60
2021/06/22 01:37:55;;;;;;;17.90;4.72;;;23.00;78.20;;;;;;5009028;28;20033;-61
2021/06/22 01:40:21;;;;;;;13.20;3.92;;;23.00;78.10;;;;;;4992425;28;20057;-61
2021/06/22 01:42:46;;;;;;;15.60;4.50;;;23.00;78.00;;;;;;5008444;28;20066;-61
2021/06/22 01:45:13;;;;;;;11.48;4.05;;;23.00;78.10;;;;;;5004402;28;20518;-62
2021/06/22 01:47:42;;;;;;;12.60;3.92;;;23.00;78.20;;;;;;5006375;28;20045;-61
2021/06/22 01:50:08;;;;;;;13.57;4.15;;;23.00;78.20;;;;;;5008121;28;20466;-63
2021/06/22 01:52:33;;;;;;;15.48;4.65;;;23.00;78.20;;;;;;5009579;28;20046;-61
2021/06/22 01:55:08;;;;;;;11.35;3.45;;;22.90;78.10;;;;;;5038312;28;20026;-62
2021/06/22 01:57:33;;;;;;;13.45;4.07;;;22.90;78.10;;;;;;5033063;28;20026;-62
2021/06/22 01:59:59;;;;;;;11.20;3.88;;;22.90;78.20;;;;;;5007667;28;20099;-63
2021/06/22 02:02:24;;;;;;;15.50;4.38;;;22.90;78.30;;;;;;5008503;28;20042;-61
2021/06/22 02:04:51;;;;;;;11.65;3.53;;;22.90;78.30;;;;;;5008314;28;20022;-62
2021/06/22 02:07:17;;;;;;;14.35;3.75;;;22.90;78.30;;;;;;5039102;28;20021;-61
2021/06/22 02:09:42;;;;;;;12.32;3.92;;;22.80;78.30;;;;;;5003697;28;20037;-61
2021/06/22 02:12:08;;;;;;;13.98;3.50;;;22.80;78.30;;;;;;5003340;28;20029;-62
2021/06/22 02:14:34;;;;;;;8.30;3.45;;;22.80;78.30;;;;;;5009294;28;20132;-61
2021/06/22 02:16:59;;;;;;;11.18;3.60;;;22.80;78.40;;;;;;5009976;28;20109;-61
2021/06/22 02:19:25;;;;;;;12.70;3.40;;;22.80;78.40;;;;;;5011212;28;20029;-61
2021/06/22 02:21:50;;;;;;;9.07;3.25;;;22.70;78.30;;;;;;5012004;28;20053;-62
2021/06/22 02:24:16;;;;;;;12.75;3.20;;;22.80;78.40;;;;;;5012808;28;20038;-62
2021/06/22 02:26:41;;;;;;;7.85;3.33;;;22.70;78.40;;;;;;5013783;28;20382;-61
2021/06/22 02:29:07;;;;;;;9.18;3.17;;;22.70;78.50;;;;;;5011688;28;20030;-61
2021/06/22 02:31:33;;;;;;;9.07;3.10;;;22.70;78.40;;;;;;5012988;28;20103;-61
2021/06/22 02:33:58;;;;;;;10.45;3.10;;;22.70;78.40;;;;;;5009409;28;20485;-61
2021/06/22 02:36:25;;;;;;;7.90;2.67;;;22.70;78.30;;;;;;5012763;28;20034;-61
2021/06/22 02:38:51;;;;;;;11.00;2.72;;;22.70;78.30;;;;;;4999413;28;20120;-61
2021/06/22 02:41:16;;;;;;;6.97;3.20;;;22.70;78.40;;;;;;5011313;28;20145;-60
2021/06/22 02:43:42;;;;;;;6.97;2.67;;;22.70;78.60;;;;;;5009430;28;20037;-61
2021/06/22 02:46:07;;;;;;;11.10;3.13;;;22.70;78.70;;;;;;5013020;28;20111;-61
2021/06/22 02:48:33;;;;;;;8.35;2.97;;;22.70;78.70;;;;;;5011255;28;20053;-62
2021/06/22 02:50:58;;;;;;;7.82;2.83;;;22.70;78.70;;;;;;5012214;28;20439;-62
2021/06/22 02:53:24;;;;;;;6.20;2.42;;;22.60;78.90;;;;;;5014081;28;20037;-60
2021/06/22 02:55:49;;;;;;;4.93;2.70;;;22.60;78.90;;;;;;4994569;28;20037;-61
2021/06/22 02:58:15;;;;;;;6.40;2.50;;;22.60;78.90;;;;;;5025923;28;20022;-63
2021/06/22 03:00:40;;;;;;;6.15;2.30;;;22.60;78.90;;;;;;5012202;28;20185;-61
2021/06/22 03:03:06;;;;;;;7.93;2.75;;;22.60;78.90;;;;;;4998013;28;20026;-61
2021/06/22 03:05:31;;;;;;;5.95;2.50;;;22.60;79.00;;;;;;5007340;28;20038;-62
2021/06/22 03:07:57;;;;;;;6.65;2.60;;;22.50;79.00;;;;;;5020060;28;20124;-60
2021/06/22 03:10:23;;;;;;;8.00;2.33;;;22.50;78.90;;;;;;5011349;28;20022;-61
2021/06/22 03:12:49;;;;;;;7.22;3.60;;;22.50;79.00;;;;;;5012344;28;20022;-62
2021/06/22 03:15:17;;;;;;;10.80;3.13;;;22.50;79.00;;;;;;5012160;28;20022;-62
2021/06/22 03:17:42;;;;;;;6.93;3.33;;;22.50;79.00;;;;;;5011639;28;20049;-62
2021/06/22 03:20:09;;;;;;;10.18;3.80;;;22.50;79.10;;;;;;5011659;28;20054;-61
2021/06/22 03:22:35;;;;;;;7.85;3.35;;;22.50;79.10;;;;;;4994869;28;20065;-62
2021/06/22 03:25:00;;;;;;;7.07;3.40;;;22.50;79.00;;;;;;4993143;28;20073;-59
2021/06/22 03:27:26;;;;;;;6.80;3.38;;;22.50;79.00;;;;;;5025945;28;20046;-60
2021/06/22 03:29:51;;;;;;;7.28;3.20;;;22.50;78.90;;;;;;5010872;28;20382;-59
2021/06/22 03:32:17;;;;;;;8.25;2.97;;;22.50;79.00;;;;;;5010785;28;20030;-60
2021/06/22 03:34:43;;;;;;;7.13;2.90;;;22.50;79.00;;;;;;5003522;28;20040;-64
2021/06/22 03:37:08;;;;;;;7.93;3.20;;;22.40;79.00;;;;;;5010948;28;20393;-61
2021/06/22 03:39:34;;;;;;;6.82;2.88;;;22.40;79.00;;;;;;5009889;28;20026;-62
2021/06/22 03:42:00;;;;;;;6.25;2.90;;;22.40;79.10;;;;;;5012341;28;20109;-59
2021/06/22 03:44:25;;;;;;;6.20;2.88;;;22.40;79.00;;;;;;5024758;28;20157;-60
2021/06/22 03:46:51;;;;;;;7.93;2.70;;;22.40;79.10;;;;;;5011707;28;20569;-58
2021/06/22 03:49:16;;;;;;;7.15;2.78;;;22.40;79.00;;;;;;5007255;28;20486;-60
2021/06/22 03:51:42;;;;;;;7.45;2.78;;;22.40;79.00;;;;;;5007345;28;20042;-60
2021/06/22 03:54:08;;;;;;;6.82;2.38;;;22.40;79.00;;;;;;5007009;28;20022;-60
2021/06/22 03:56:33;;;;;;;5.93;2.42;;;22.40;79.10;;;;;;5005739;28;20485;-58
2021/06/22 03:58:59;;;;;;;5.32;2.85;;;22.30;79.00;;;;;;5006115;28;20038;-60
2021/06/22 04:01:24;;;;;;;4.28;2.28;;;22.30;79.00;;;;;;5006976;28;20409;-60
2021/06/22 04:03:50;;;;;;;6.35;2.40;;;22.30;79.00;;;;;;4989590;28;20478;-59
2021/06/22 04:06:16;;;;;;;6.30;2.60;;;22.30;79.00;;;;;;4991385;28;20357;-60
2021/06/22 04:08:42;;;;;;;6.85;2.67;;;22.30;79.10;;;;;;5002865;28;20057;-61
2021/06/22 04:11:07;;;;;;;9.00;2.70;;;22.30;79.10;;;;;;5007038;28;20412;-62
2021/06/22 04:13:33;;;;;;;6.70;3.00;;;22.30;79.10;;;;;;5003358;28;20026;-60
2021/06/22 04:15:58;;;;;;;9.30;2.60;;;22.30;79.00;;;;;;5006155;28;20064;-61
2021/06/22 04:18:24;;;;;;;4.68;2.42;;;22.20;79.00;;;;;;5008591;28;20410;-62
2021/06/22 04:20:50;;;;;;;7.18;2.58;;;22.30;79.10;;;;;;5033915;28;20046;-61
2021/06/22 04:23:15;;;;;;;4.30;2.47;;;22.20;79.10;;;;;;5039195;28;20117;-62
2021/06/22 04:25:41;;;;;;;3.35;1.88;;;22.20;79.10;;;;;;5011408;28;20022;-61
2021/06/22 04:28:06;;;;;;;4.53;2.28;;;22.20;79.10;;;;;;5011167;28;20434;-62
2021/06/22 04:30:33;;;;;;;5.53;2.42;;;22.20;79.10;;;;;;5011171;28;20022;-62
2021/06/22 04:32:59;;;;;;;4.88;2.53;;;22.20;79.10;;;;;;5020306;28;20607;-62
2021/06/22 04:35:27;;;;;;;3.67;2.25;;;22.20;79.10;;;;;;4993609;28;20101;-62
2021/06/22 04:37:52;;;;;;;3.70;2.00;;;22.20;79.10;;;;;;5010918;28;20112;-62
2021/06/22 04:40:18;;;;;;;5.25;2.22;;;22.20;79.10;;;;;;5042817;28;20537;-61
2021/06/22 04:42:43;;;;;;;5.97;1.98;;;22.20;79.30;;;;;;5009798;28;20065;-61
2021/06/22 04:45:09;;;;;;;9.40;2.17;;;22.20;79.40;;;;;;5010586;28;20490;-61
2021/06/22 04:47:35;;;;;;;5.43;2.03;;;22.20;79.30;;;;;;5003023;28;20022;-62
2021/06/22 04:50:01;;;;;;;9.90;2.38;;;22.20;79.30;;;;;;5010849;28;20029;-61
2021/06/22 04:52:26;;;;;;;4.15;1.95;;;22.20;79.30;;;;;;5010909;28;20084;-62
2021/06/22 04:54:52;;;;;;;4.32;1.92;;;22.20;79.30;;;;;;5010139;28;20087;-61
2021/06/22 04:57:20;;;;;;;8.73;2.17;;;22.20;79.30;;;;;;5010887;28;20034;-61
2021/06/22 04:59:46;;;;;;;4.60;1.80;;;22.20;79.30;;;;;;5009269;28;20027;-60
2021/06/22 05:02:11;;;;;;;7.57;2.35;;;22.20;79.40;;;;;;5010655;28;20029;-61
2021/06/22 05:04:37;;;;;;;6.35;1.92;;;22.20;79.40;;;;;;4992364;28;20139;-62
2021/06/22 05:07:03;;;;;;;5.90;2.13;;;22.20;79.30;;;;;;5010715;28;20129;-62
2021/06/22 05:09:29;;;;;;;6.65;2.13;;;22.20;80.10;;;;;;5010183;28;20021;-60
2021/06/22 05:11:54;;;;;;;5.32;2.10;;;22.20;79.40;;;;;;5010578;28;20045;-60
2021/06/22 05:14:20;;;;;;;4.85;2.05;;;22.20;79.40;;;;;;5009092;28;20026;-60
2021/06/22 05:16:48;;;;;;;4.32;1.80;;;22.20;79.20;;;;;;5010225;28;20034;-60
2021/06/22 05:19:13;;;;;;;4.35;2.00;;;22.20;79.30;;;;;;5008888;28;20025;-60
2021/06/22 05:21:39;;;;;;;6.18;2.05;;;22.20;79.40;;;;;;5009165;28;20394;-62
2021/06/22 05:24:05;;;;;;;4.78;2.17;;;22.20;79.50;;;;;;5010207;28;20033;-61
2021/06/22 05:26:30;;;;;;;6.82;2.30;;;22.20;79.40;;;;;;5010156;28;20061;-61
2021/06/22 05:28:56;;;;;;;3.60;1.80;;;22.20;79.40;;;;;;5010045;28;20026;-62
2021/06/22 05:31:22;;;;;;;5.95;2.28;;;22.20;79.50;;;;;;5010388;28;20030;-61
2021/06/22 05:33:47;;;;;;;4.13;2.45;;;22.20;79.60;;;;;;5004556;28;20049;-62
2021/06/22 05:36:13;;;;;;;7.32;2.17;;;22.20;79.50;;;;;;5010052;28;20026;-63
2021/06/22 05:38:38;;;;;;;8.07;2.60;;;22.20;79.60;;;;;;5009778;28;20052;-62
2021/06/22 05:41:04;;;;;;;8.70;2.67;;;22.20;79.70;;;;;;5010064;28;20049;-61
2021/06/22 05:43:29;;;;;;;8.95;2.20;;;22.20;80.10;;;;;;5009815;28;20428;-63
2021/06/22 05:45:55;;;;;;;10.27;2.53;;;22.20;80.20;;;;;;5009514;28;20037;-60
2021/06/22 05:48:20;;;;;;;5.82;2.55;;;22.20;80.50;;;;;;5002287;28;20049;-61
2021/06/22 05:50:46;;;;;;;9.50;2.25;;;22.20;80.30;;;;;;5025097;28;20025;-61
2021/06/22 05:53:11;;;;;;;4.70;2.00;;;22.20;80.80;;;;;;5009905;28;20069;-61
2021/06/22 05:55:37;;;;;;;9.63;2.38;;;22.20;80.00;;;;;;5007246;28;20072;-62
2021/06/22 05:58:02;;;;;;;13.75;2.20;;;22.20;80.00;;;;;;5009430;28;20457;-61
2021/06/22 06:00:29;;;;;;;6.43;2.50;;;22.20;80.00;;;;;;5008493;28;20489;-61
2021/06/22 06:02:55;;;;;;;10.85;2.30;;;22.20;80.20;;;;;;5009365;28;20034;-62
2021/06/22 06:05:24;;;;;;;8.52;2.15;;;22.20;80.10;;;;;;5005574;28;20474;-60
2021/06/22 06:07:50;;;;;;;12.85;2.42;;;22.20;80.20;;;;;;5009106;28;20049;-62
2021/06/22 06:10:16;;;;;;;7.18;2.50;;;22.20;80.30;;;;;;5038555;28;20061;-62
2021/06/22 06:12:41;;;;;;;9.88;2.28;;;22.20;80.30;;;;;;5008140;28;20034;-60
2021/06/22 06:15:08;;;;;;;12.73;2.05;;;22.20;80.20;;;;;;4991597;28;20093;-61
2021/06/22 06:17:34;;;;;;;6.88;2.20;;;22.20;80.20;;;;;;5009209;28;20096;-61
2021/06/22 06:20:00;;;;;;;14.88;2.55;;;22.10;80.00;;;;;;5036868;28;20042;-60
2021/06/22 06:22:26;;;;;;;6.75;2.00;;;22.20;80.10;;;;;;5007131;28;20026;-61
2021/06/22 06:24:54;;;;;;;8.45;2.42;;;22.20;80.10;;;;;;5037633;28;20028;-61
2021/06/22 06:27:24;;;;;;;8.23;1.98;;;22.20;80.00;;;;;;5008724;28;20030;-61
2021/06/22 06:29:59;;;;;;;6.72;2.15;;;22.20;79.80;;;;;;5010299;28;20029;-60
2021/06/22 06:32:25;;;;;;;11.40;2.70;;;22.20;79.70;;;;;;5004427;28;20030;-63
2021/06/22 06:34:50;;;;;;;6.32;2.25;;;22.20;79.70;;;;;;4996067;28;20045;-62
2021/06/22 06:37:16;;;;;;;16.25;3.05;;;22.20;79.80;;;;;;5008630;28;20066;-60
2021/06/22 06:39:42;;;;;;;16.25;3.33;;;22.20;79.90;;;;;;5006810;28;20073;-63
2021/06/22 06:42:08;;;;;;;27.05;3.33;;;22.20;79.80;;;;;;5008187;28;20040;-62
2021/06/22 06:44:34;;;;;;;13.52;2.92;;;22.20;79.70;;;;;;5007192;28;20109;-60
2021/06/22 06:46:59;;;;;;;17.17;3.17;;;22.20;80.10;;;;;;5008143;28;20065;-62
2021/06/22 06:49:25;;;;;;;22.08;3.30;;;22.20;80.20;;;;;;5007609;28;20034;-62
2021/06/22 06:51:50;;;;;;;15.02;3.53;;;22.20;80.10;;;;;;5007402;28;20038;-60
2021/06/22 06:54:16;;;;;;;14.02;3.00;;;22.20;79.70;;;;;;5018490;28;20043;-61
2021/06/22 06:56:41;;;;;;;16.80;3.35;;;22.20;79.80;;;;;;5004584;28;20034;-62
2021/06/22 06:59:07;;;;;;;22.70;3.92;;;22.30;79.80;;;;;;5003232;28;20034;-64
2021/06/22 07:01:32;;;;;;;22.40;3.08;;;22.30;79.80;;;;;;5011025;28;20093;-61
2021/06/22 07:03:59;;;;;;;21.17;3.97;;;22.40;79.70;;;;;;5011451;28;20034;-63
2021/06/22 07:06:24;;;;;;;20.77;3.15;;;22.20;79.70;;;;;;5008502;28;20261;-61
2021/06/22 07:08:50;;;;;;;18.30;3.88;;;22.20;79.80;;;;;;5005785;28;20093;-63
2021/06/22 07:11:18;;;;;;;28.15;4.75;;;22.20;80.00;;;;;;5007116;28;20488;-61
2021/06/22 07:13:44;;;;;;;18.73;3.67;;;22.20;80.10;;;;;;4991312;28;20041;-63
2021/06/22 07:16:09;;;;;;;195.63;17.02;;;22.20;80.10;;;;;;5008737;28;20367;-61
2021/06/22 07:18:35;;;;;;;118.65;11.00;;;22.20;79.90;;;;;;5024679;28;20506;-61
2021/06/22 07:21:00;;;;;;;38.30;5.00;;;22.20;79.70;;;;;;5010840;28;20578;-62
2021/06/22 07:23:26;;;;;;;31.10;4.07;;;22.10;79.60;;;;;;5010822;28;20036;-61
2021/06/22 07:25:52;;;;;;;17.40;3.40;;;22.10;79.80;;;;;;5008469;28;20116;-62
2021/06/22 07:28:17;;;;;;;44.92;5.00;;;22.10;79.80;;;;;;5010540;28;20030;-61
2021/06/22 07:30:43;;;;;;;195.00;16.88;;;22.10;79.50;;;;;;5022359;28;20509;-61
2021/06/22 07:33:08;;;;;;;40.80;4.88;;;22.10;79.40;;;;;;5003194;28;20042;-61
2021/06/22 07:35:34;;;;;;;32.67;4.40;;;22.10;79.20;;;;;;5011246;28;20080;-63
2021/06/22 07:38:00;;;;;;;30.52;4.15;;;22.10;79.00;;;;;;5010426;28;20045;-64
2021/06/22 07:40:26;;;;;;;43.63;4.38;;;22.10;78.70;;;;;;5009529;28;20088;-61
2021/06/22 07:42:52;;;;;;;32.63;4.18;;;22.20;78.60;;;;;;5010177;28;20397;-62
2021/06/22 07:45:18;;;;;;;29.80;4.25;;;22.20;78.50;;;;;;5009622;28;20492;-61
2021/06/22 07:47:44;;;;;;;43.97;6.28;;;22.20;78.50;;;;;;5008518;28;20084;-62
2021/06/22 07:50:10;;;;;;;218.45;17.88;;;22.20;78.80;;;;;;5009944;28;20037;-60
2021/06/22 07:52:36;;;;;;;43.05;4.75;;;22.20;78.80;;;;;;5041803;28;20034;-62
2021/06/22 07:55:01;;;;;;;39.08;4.55;;;22.20;78.40;;;;;;5009211;28;20098;-63
2021/06/22 07:57:27;;;;;;;41.78;5.43;;;22.20;78.20;;;;;;5008778;28;20066;-62
2021/06/22 07:59:52;;;;;;;34.42;4.53;;;22.30;78.10;;;;;;5005446;28;20115;-63
2021/06/22 08:02:18;;;;;;;32.65;4.60;;;22.20;78.00;;;;;;5001051;28;20096;-61
2021/06/22 08:04:43;;;;;;;34.72;4.70;;;22.30;78.20;;;;;;5009184;28;20029;-60
2021/06/22 08:07:09;;;;;;;65.90;8.38;;;22.30;78.00;;;;;;5009276;28;20049;-63
2021/06/22 08:09:34;;;;;;;21.73;3.80;;;22.30;77.70;;;;;;5006382;28;20902;-61
2021/06/22 08:12:00;;;;;;;52.92;5.60;;;22.30;77.60;;;;;;5001931;28;20037;-60
2021/06/22 08:14:26;;;;;;;54.88;4.97;;;22.30;77.80;;;;;;5008178;28;20029;-63
2021/06/22 08:16:51;;;;;;;56.35;4.50;;;22.30;77.80;;;;;;5005823;28;20022;-62
2021/06/22 08:19:17;;;;;;;29.40;3.72;;;22.30;78.00;;;;;;5007967;28;20061;-61
2021/06/22 08:21:43;;;;;;;38.40;4.43;;;22.30;78.00;;;;;;4991442;28;20080;-61
2021/06/22 08:24:08;;;;;;;27.58;3.47;;;22.30;78.10;;;;;;5006647;28;20446;-63
2021/06/22 08:26:34;;;;;;;27.42;3.05;;;22.30;78.30;;;;;;5008689;28;20033;-64
2021/06/22 08:29:00;;;;;;;27.80;2.80;;;22.30;78.40;;;;;;5022047;28;20104;-63
2021/06/22 08:31:26;;;;;;;35.22;4.72;;;22.20;78.40;;;;;;5008332;28;20803;-60
2021/06/22 08:33:51;;;;;;;20.60;3.58;;;22.20;78.00;;;;;;5009261;28;20049;-59
2021/06/22 08:36:17;;;;;;;26.90;3.65;;;22.20;77.50;;;;;;5008660;28;20018;-61
2021/06/22 08:38:42;;;;;;;33.92;4.65;;;22.20;77.30;;;;;;5009992;28;20026;-63
2021/06/22 08:41:09;;;;;;;40.50;5.03;;;22.20;77.20;;;;;;5008497;28;20030;-62
2021/06/22 08:43:34;;;;;;;37.20;4.90;;;22.30;77.10;;;;;;5014908;28;20018;-60
2021/06/22 08:46:04;;;;;;;60.72;7.55;;;22.30;77.30;;;;;;5005713;28;20084;-59
2021/06/22 08:48:30;;;;;;;37.42;5.03;;;22.20;77.30;;;;;;5005492;28;20030;-62
2021/06/22 08:50:55;;;;;;;20.73;4.18;;;22.20;77.60;;;;;;5007928;28;20057;-62
2021/06/22 08:53:21;;;;;;;21.10;3.38;;;22.20;77.70;;;;;;5004600;28;20061;-61
2021/06/22 08:55:47;;;;;;;16.80;3.47;;;22.20;77.70;;;;;;4990971;28;20061;-60
2021/06/22 08:58:14;;;;;;;44.22;5.95;;;22.20;77.80;;;;;;5008715;28;20053;-61
2021/06/22 09:00:41;;;;;;;39.85;4.65;;;22.20;77.70;;;;;;5017953;28;20026;-59
2021/06/22 09:03:11;;;;;;;69.88;9.40;;;22.20;77.70;;;;;;5008359;28;20037;-61
2021/06/22 09:05:40;;;;;;;37.33;4.10;;;22.20;77.70;;;;;;5007423;28;20045;-60
2021/06/22 09:08:19;;;;;;;31.60;4.05;;;22.20;77.70;;;;;;5007846;28;20541;-61
2021/06/22 09:10:45;;;;;;;46.63;5.50;;;22.20;77.70;;;;;;4992208;28;20038;-59
2021/06/22 09:13:13;;;;;;;28.33;3.50;;;22.30;77.80;;;;;;4992502;28;20052;-61
2021/06/22 09:15:40;;;;;;;27.67;3.45;;;22.30;77.80;;;;;;5007039;28;20026;-60
2021/06/22 09:18:06;;;;;;;16.92;3.60;;;22.30;77.80;;;;;;5011509;28;20069;-59
2021/06/22 09:20:35;;;;;;;19.27;3.83;;;22.30;77.90;;;;;;5007774;28;20046;-59
2021/06/22 09:23:15;;;;;;;18.20;3.80;;;22.30;77.80;;;;;;5006812;28;20121;-61
2021/06/22 09:25:41;;;;;;;29.80;4.32;;;22.30;77.60;;;;;;5014523;28;20037;-59
2021/06/22 09:28:07;;;;;;;62.35;6.80;;;22.30;77.70;;;;;;5007303;28;20084;-61
2021/06/22 09:30:41;;;;;;;39.67;5.63;;;22.30;77.70;;;;;;5006303;28;20034;-61
2021/06/22 09:33:25;;;;;;;140.73;14.18;;;22.30;77.50;;;;;;5006243;28;20105;-59
2021/06/22 09:36:25;;;;;;;70.20;10.25;;;22.30;78.00;;;;;;5007375;28;20042;-61
2021/06/22 09:38:54;;;;;;;55.15;9.10;;;22.40;77.30;;;;;;5002154;28;20509;-62
2021/06/22 09:41:30;;;;;;;124.80;14.07;;;22.40;77.10;;;;;;5005391;28;20038;-60
2021/06/22 09:44:05;;;;;;;;;;;22.40;77.00;;;;;;5035934;28;20091;-61
2021/06/22 09:46:32;;;;;;;82.93;9.77;;;22.50;77.00;;;;;;5001013;28;19909;-59
2021/06/22 09:48:59;;;;;;;58.47;8.05;;;22.50;77.00;;;;;;5037457;28;20034;-62
2021/06/22 09:51:34;;;;;;;51.20;8.40;;;22.50;76.70;;;;;;5001075;28;20022;-59
2021/06/22 09:54:14;;;;;;;66.45;9.55;;;22.50;76.50;;;;;;5006561;28;20026;-59
2021/06/22 09:56:56;;;;;;;53.55;9.65;;;22.50;76.30;;;;;;5006355;28;20356;-60
2021/06/22 09:59:22;;;;;;;72.30;9.80;;;22.60;76.30;;;;;;5016931;28;20018;-63
2021/06/22 10:01:48;;;;;;;62.28;8.50;;;22.60;76.00;;;;;;4971231;28;20405;-59
2021/06/22 10:04:27;;;;;;;58.25;9.40;;;22.60;75.80;;;;;;5010750;28;20033;-62
2021/06/22 10:07:00;;;;;;;47.28;7.45;;;22.70;75.50;;;;;;5006456;28;20030;-63
2021/06/22 10:09:32;;;;;;;60.58;8.45;;;22.70;75.30;;;;;;4977977;28;20117;-62
2021/06/22 10:12:05;;;;;;;59.30;7.55;;;22.70;75.40;;;;;;5038589;28;20751;-59
2021/06/22 10:14:44;;;;;;;35.53;6.47;;;22.80;75.50;;;;;;5000979;28;20113;-60
2021/06/22 10:17:14;;;;;;;49.05;6.28;;;22.80;75.30;;;;;;5009245;28;20084;-62
2021/06/22 10:19:41;;;;;;;56.33;7.05;;;22.80;75.30;;;;;;5022210;28;20498;-60
2021/06/22 10:22:06;;;;;;;51.30;7.68;;;22.80;75.10;;;;;;4989777;28;20033;-60
2021/06/22 10:24:37;;;;;;;63.50;8.45;;;22.80;75.10;;;;;;5002649;28;20033;-60
2021/06/22 10:27:03;;;;;;;74.03;8.15;;;22.80;75.20;;;;;;5006238;28;20594;-60
2021/06/22 10:29:31;;;;;;;49.65;7.53;;;22.90;75.10;;;;;;5004527;28;20109;-61
2021/06/22 10:31:57;;;;;;;81.35;8.60;;;22.80;75.00;;;;;;5001505;28;20116;-61
2021/06/22 10:34:22;;;;;;;75.40;9.52;;;22.90;75.00;;;;;;5007557;28;20029;-62
2021/06/22 10:36:55;;;;;;;53.35;6.85;;;22.90;75.00;;;;;;5011614;28;20260;-62
2021/06/22 10:39:36;;;;;;;47.72;7.32;;;22.90;74.80;;;;;;5007630;28;20053;-60
2021/06/22 10:42:10;;;;;;;61.20;7.20;;;22.90;74.70;;;;;;5008807;28;20060;-60
2021/06/22 10:44:39;;;;;;;43.30;6.47;;;22.90;74.40;;;;;;5006949;28;20026;-59
2021/06/22 10:47:24;;;;;;;124.53;12.93;;;22.90;74.40;;;;;;5009656;28;20025;-62
2021/06/22 10:49:59;;;;;;;72.27;8.37;;;22.90;74.60;;;;;;5005189;28;20357;-62
2021/06/22 10:52:43;;;;;;;53.78;7.70;;;22.90;74.50;;;;;;5013441;28;20335;-62
2021/06/22 10:55:27;;;;;;;154.68;14.30;;;22.90;74.30;;;;;;5009633;28;20490;-61
2021/06/22 10:58:08;;;;;;;80.53;8.77;;;23.00;74.50;;;;;;5011003;28;20029;-62
2021/06/22 11:00:51;;;;;;;104.35;9.80;;;23.00;74.30;;;;;;5010214;28;20018;-61
2021/06/22 11:03:28;;;;;;;103.65;12.23;;;23.00;74.50;;;;;;5009733;28;20055;-63
2021/06/22 11:06:05;;;;;;;303.58;30.25;;;23.10;74.30;;;;;;5035590;28;20034;-61
2021/06/22 11:08:32;;;;;;;106.20;11.10;;;23.20;74.20;;;;;;5011334;28;20079;-59
2021/06/22 11:11:00;;;;;;;103.57;13.10;;;23.20;73.70;;;;;;5011566;28;20061;-60
2021/06/22 11:13:32;;;;;;;81.20;10.02;;;23.30;73.60;;;;;;5010071;28;20026;-61
2021/06/22 11:16:01;;;;;;;84.35;10.13;;;23.30;73.40;;;;;;5038086;28;20023;-62
2021/06/22 11:18:26;;;;;;;66.15;8.73;;;23.40;72.90;;;;;;5008996;28;20026;-62
2021/06/22 11:20:58;;;;;;;81.80;10.63;;;23.50;72.70;;;;;;4993835;28;20054;-59
2021/06/22 11:23:23;;;;;;;63.50;8.70;;;23.60;72.40;;;;;;5024137;28;20025;-60
2021/06/22 11:25:50;;;;;;;83.63;8.40;;;23.70;72.30;;;;;;5026575;28;20345;-59
2021/06/22 11:28:17;;;;;;;71.82;9.07;;;23.70;71.90;;;;;;5009272;28;20026;-61
2021/06/22 11:30:49;;;;;;;83.60;9.30;;;23.80;71.40;;;;;;5006815;28;20030;-61
2021/06/22 11:33:31;;;;;;;91.70;9.05;;;23.90;70.90;;;;;;5009972;28;20363;-62
2021/06/22 11:36:21;;;;;;;77.80;8.48;;;24.00;70.40;;;;;;5033782;28;20490;-61
2021/06/22 11:39:28;;;;;;;66.57;8.20;;;24.10;70.50;;;;;;5002762;28;20115;-61
2021/06/22 11:42:12;;;;;;;62.10;7.25;;;24.00;70.40;;;;;;5007151;28;20116;-63
2021/06/22 11:44:50;;;;;;;68.03;8.30;;;24.10;70.10;;;;;;4999892;28;20034;-60
2021/06/22 11:47:25;;;;;;;72.40;8.27;;;24.10;70.20;;;;;;4990116;28;20339;-61
2021/06/22 11:49:54;;;;;;;83.27;8.27;;;24.10;70.10;;;;;;5010810;28;20018;-62
2021/06/22 11:52:22;;;;;;;46.75;6.53;;;24.10;70.00;;;;;;5005268;28;20033;-61
2021/06/22 11:54:47;;;;;;;56.50;6.45;;;24.10;69.80;;;;;;5006306;28;20553;-62
2021/06/22 11:57:27;;;;;;;66.65;6.75;;;24.20;69.80;;;;;;5007204;28;20038;-62
2021/06/22 11:59:53;;;;;;;69.30;6.38;;;24.20;69.80;;;;;;5006996;28;20014;-62
2021/06/22 12:02:19;;;;;;;52.08;5.97;;;24.30;69.00;;;;;;4991868;28;20670;-63
2021/06/22 12:04:45;;;;;;;36.60;5.75;;;24.30;68.80;;;;;;5007138;28;20136;-62
2021/06/22 12:07:11;;;;;;;46.08;6.50;;;24.40;68.70;;;;;;4992401;28;20021;-61
2021/06/22 12:09:39;;;;;;;29.27;4.90;;;24.50;68.60;;;;;;5007750;28;20346;-62
2021/06/22 12:12:05;;;;;;;28.55;4.03;;;24.50;68.40;;;;;;4985898;28;20359;-60
2021/06/22 12:14:31;;;;;;;33.92;4.20;;;24.60;68.10;;;;;;5008991;28;20026;-63
2021/06/22 12:16:57;;;;;;;31.38;4.53;;;24.70;67.90;;;;;;5006709;28;20025;-62
2021/06/22 12:19:23;;;;;;;19.98;3.45;;;24.80;67.50;;;;;;5009777;28;20034;-62
2021/06/22 12:21:53;;;;;;;25.20;3.85;;;24.80;67.00;;;;;;5000818;28;20042;-61
2021/06/22 12:24:19;;;;;;;22.23;3.72;;;24.90;66.90;;;;;;5000449;28;20537;-62
2021/06/22 12:26:52;;;;;;;24.13;4.03;;;24.90;66.90;;;;;;5007217;28;20077;-60
2021/06/22 12:29:22;;;;;;;33.42;3.38;;;24.90;66.80;;;;;;4990886;28;20532;-60
2021/06/22 12:31:51;;;;;;;27.05;2.90;;;25.00;66.40;;;;;;5006045;28;20026;-62
2021/06/22 12:34:17;;;;;;;27.55;3.08;;;25.00;66.50;;;;;;5008364;28;20120;-63
2021/06/22 12:36:43;;;;;;;31.35;3.60;;;25.10;66.30;;;;;;5007107;28;20113;-60
2021/06/22 12:39:08;;;;;;;20.33;3.65;;;25.10;66.00;;;;;;5008868;28;20538;-59